Latest Weather Observations for Banana Bank

IDQ60801

Issued at 10:32 pm EST Thursday 11 February 2016 (issued every 30 minutes, with the page automatically refreshed every 10 minutes)

About weather observations | Map of weather stations | Latest weather observations for QLD | Other Formats
Station Details ID: 040925 Name: BANANA BANK NORTH BEACON Lat: -27.53 Lon: 153.33 Height: 7.0 m
Data from the previous 72 hours. | See also: Recent months for locations in Queensland
Date/Time
EST
Temp
°C
App
Temp
°C
Dew
Point
Rel
Hum
%
Delta-T
°C
Wind Press
QNH
hPa
Press
MSL
hPa
Rain
since 9 am
mm
Dir
 
Spd
km/h
Gust
km/h
Spd
kts
Gust
kts
11/10:30pm - - - - - SE 24 30 13 16 - - -
11/10:00pm - - - - - SE 26 30 14 16 - - -
11/09:30pm - - - - - SE 26 32 14 17 - - -
11/09:00pm - - - - - SE 26 32 14 17 - - -
11/08:30pm - - - - - SE 28 32 15 17 - - -
11/08:00pm - - - - - SE 30 35 16 19 - - -
11/07:30pm - - - - - SE 26 32 14 17 - - -
11/07:00pm - - - - - SE 28 33 15 18 - - -
11/06:30pm - - - - - SE 30 35 16 19 - - -
11/06:00pm - - - - - SE 30 35 16 19 - - -
11/05:30pm - - - - - SE 32 39 17 21 - - -
11/05:00pm - - - - - SE 32 41 17 22 - - -
11/04:30pm - - - - - SE 33 41 18 22 - - -
11/04:00pm - - - - - SE 35 41 19 22 - - -
11/03:30pm - - - - - SE 33 43 18 23 - - -
11/03:00pm - - - - - SE 33 39 18 21 - - -
11/02:30pm - - - - - SE 32 35 17 19 - - -
11/02:00pm - - - - - SE 30 35 16 19 - - -
11/01:30pm - - - - - SE 28 33 15 18 - - -
11/01:00pm - - - - - SE 30 37 16 20 - - -
11/12:30pm - - - - - SE 30 35 16 19 - - -
11/12:00pm - - - - - SSE 30 33 16 18 - - -
11/11:30am - - - - - SE 26 30 14 16 - - -
11/11:00am - - - - - SSE 28 32 15 17 - - -
11/10:30am - - - - - SSE 26 32 14 17 - - -
11/10:00am - - - - - SSE 24 32 13 17 - - -
11/09:30am - - - - - SSE 20 28 11 15 - - -
11/09:00am - - - - - SSE 22 28 12 15 - - -
11/08:30am - - - - - S 19 24 10 13 - - -
11/08:00am - - - - - S 20 22 11 12 - - -
11/07:30am - - - - - S 20 26 11 14 - - -
11/07:00am - - - - - SSW 22 26 12 14 - - -
11/06:30am - - - - - S 19 20 10 11 - - -
11/06:00am - - - - - SSW 20 24 11 13 - - -
11/05:30am - - - - - SSW 19 22 10 12 - - -
11/05:00am - - - - - S 17 20 9 11 - - -
11/04:30am - - - - - S 19 22 10 12 - - -
11/04:00am - - - - - S 20 22 11 12 - - -
11/03:30am - - - - - S 20 24 11 13 - - -
11/03:00am - - - - - S 22 26 12 14 - - -
11/02:30am - - - - - S 22 26 12 14 - - -
11/02:00am - - - - - S 22 24 12 13 - - -
11/01:30am - - - - - S 20 24 11 13 - - -
11/01:00am - - - - - S 17 22 9 12 - - -
11/12:30am - - - - - S 20 26 11 14 - - -
11/12:00am - - - - - S 19 24 10 13 - - -
 
Date/Time
EST
Temp
°C
App
Temp
°C
Dew
Point
Rel
Hum
%
Delta-T
°C
Wind Press
QNH
hPa
Press
MSL
hPa
Rain
since 9 am
mm
Dir
 
Spd
km/h
Gust
km/h
Spd
kts
Gust
kts
10/11:30pm - - - - - SSW 15 19 8 10 - - -
10/11:00pm - - - - - SSW 17 22 9 12 - - -
10/10:30pm - - - - - SSE 20 26 11 14 - - -
10/10:00pm - - - - - SSE 20 24 11 13 - - -
10/09:30pm - - - - - S 19 24 10 13 - - -
10/09:00pm - - - - - S 22 28 12 15 - - -
10/08:30pm - - - - - SSE 22 26 12 14 - - -
10/08:00pm - - - - - S 26 32 14 17 - - -
10/07:30pm - - - - - SSE 33 41 18 22 - - -
10/07:00pm - - - - - SSE 28 33 15 18 - - -
10/06:30pm - - - - - SSE 30 35 16 19 - - -
10/06:00pm - - - - - SSE 26 32 14 17 - - -
10/05:30pm - - - - - SSE 33 41 18 22 - - -
10/05:00pm - - - - - SE 28 37 15 20 - - -
10/04:30pm - - - - - SE 28 32 15 17 - - -
10/04:00pm - - - - - SE 28 33 15 18 - - -
10/03:30pm - - - - - SE 26 32 14 17 - - -
10/03:00pm - - - - - SE 32 46 17 25 - - -
10/02:30pm - - - - - ESE 32 39 17 21 - - -
10/02:00pm - - - - - ESE 28 33 15 18 - - -
10/01:30pm - - - - - SE 35 41 19 22 - - -
10/01:00pm - - - - - SSE 32 41 17 22 - - -
10/12:30pm - - - - - SSE 28 33 15 18 - - -
10/12:00pm - - - - - SSE 33 39 18 21 - - -
10/11:30am - - - - - SE 30 39 16 21 - - -
10/11:00am - - - - - SSE 26 32 14 17 - - -
10/10:30am - - - - - SSE 26 33 14 18 - - -
10/10:00am - - - - - SSE 32 37 17 20 - - -
10/09:30am - - - - - S 28 37 15 20 - - -
10/09:00am - - - - - S 30 35 16 19 - - -
10/08:30am - - - - - S 28 35 15 19 - - -
10/08:00am - - - - - S 20 24 11 13 - - -
10/07:30am - - - - - S 22 30 12 16 - - -
10/07:00am - - - - - S 24 30 13 16 - - -
10/06:30am - - - - - S 24 32 13 17 - - -
10/06:00am - - - - - S 26 32 14 17 - - -
10/05:30am - - - - - S 26 32 14 17 - - -
10/05:00am - - - - - SSW 24 28 13 15 - - -
10/04:30am - - - - - S 20 28 11 15 - - -
10/04:00am - - - - - SSW 26 35 14 19 - - -
10/03:30am - - - - - SSW 28 35 15 19 - - -
10/03:00am - - - - - SSW 28 35 15 19 - - -
10/02:30am - - - - - S 30 35 16 19 - - -
10/02:00am - - - - - SSW 22 28 12 15 - - -
10/01:30am - - - - - S 22 28 12 15 - - -
10/01:00am - - - - - S 24 30 13 16 - - -
10/12:30am - - - - - S 30 35 16 19 - - -
10/12:00am - - - - - S 30 37 16 20 - - -
 
Date/Time
EST
Temp
°C
App
Temp
°C
Dew
Point
Rel
Hum
%
Delta-T
°C
Wind Press
QNH
hPa
Press
MSL
hPa
Rain
since 9 am
mm
Dir
 
Spd
km/h
Gust
km/h
Spd
kts
Gust
kts
09/11:30pm - - - - - S 28 37 15 20 - - -
09/11:00pm - - - - - SSE 26 35 14 19 - - -
09/10:30pm - - - - - S 30 39 16 21 - - -
09/10:00pm - - - - - SSE 32 39 17 21 - - -
09/09:30pm - - - - - S 30 37 16 20 - - -
09/09:00pm - - - - - S 32 41 17 22 - - -
09/08:30pm - - - - - S 30 33 16 18 - - -
09/08:00pm - - - - - S 28 39 15 21 - - -
09/07:30pm - - - - - SSE 39 52 21 28 - - -
09/07:00pm - - - - - SSE 39 50 21 27 - - -
09/06:30pm - - - - - SSE 39 48 21 26 - - -
09/06:00pm - - - - - SSE 41 56 22 30 - - -
09/05:30pm - - - - - SSE 43 57 23 31 - - -
09/05:00pm - - - - - SSE 48 57 26 31 - - -
09/04:30pm - - - - - SSE 46 57 25 31 - - -
09/04:00pm - - - - - SSE 44 54 24 29 - - -
09/03:30pm - - - - - SSE 48 59 26 32 - - -
09/03:00pm - - - - - SSE 44 54 24 29 - - -
09/02:30pm - - - - - SSE 43 54 23 29 - - -
09/02:00pm - - - - - SSE 46 57 25 31 - - -
09/01:30pm - - - - - SSE 46 57 25 31 - - -
09/01:00pm - - - - - SSE 44 52 24 28 - - -
09/12:30pm - - - - - SSE 43 52 23 28 - - -
09/12:00pm - - - - - SSE 41 50 22 27 - - -
09/11:30am - - - - - SSE 39 48 21 26 - - -
09/11:00am - - - - - SE 39 46 21 25 - - -
09/10:30am - - - - - SSE 37 46 20 25 - - -
09/10:00am - - - - - SSE 32 43 17 23 - - -
09/09:30am - - - - - SSE 33 41 18 22 - - -
09/09:00am - - - - - SSE 32 44 17 24 - - -
09/08:30am - - - - - SSE 33 43 18 23 - - -
09/08:00am - - - - - SSE 32 43 17 23 - - -
09/07:30am - - - - - S 24 32 13 17 - - -
09/07:00am - - - - - S 24 33 13 18 - - -
09/06:30am - - - - - S 24 30 13 16 - - -
09/06:00am - - - - - S 22 28 12 15 - - -
09/05:30am - - - - - S 22 28 12 15 - - -
09/05:00am - - - - - S 24 28 13 15 - - -
09/04:30am - - - - - S 22 30 12 16 - - -
09/04:00am - - - - - SSW 20 24 11 13 - - -
09/03:30am - - - - - SSW 22 28 12 15 - - -
09/03:00am - - - - - S 22 28 12 15 - - -
09/02:30am - - - - - S 22 30 12 16 - - -
09/02:00am - - - - - S 22 26 12 14 - - -
09/01:30am - - - - - S 26 35 14 19 - - -
09/01:00am - - - - - S 33 39 18 21 - - -
09/12:30am - - - - - S 30 35 16 19 - - -
09/12:00am - - - - - SSE 24 28 13 15 - - -
 
Date/Time
EST
Temp
°C
App
Temp
°C
Dew
Point
Rel
Hum
%
Delta-T
°C
Wind Press
QNH
hPa
Press
MSL
hPa
Rain
since 9 am
mm
Dir
 
Spd
km/h
Gust
km/h
Spd
kts
Gust
kts
08/11:30pm - - - - - S 30 35 16 19 - - -
08/11:00pm - - - - - SSE 30 37 16 20 - - -

Other Formats:

Comma delimited format used in spreadsheet applications
http://www.bom.gov.au/fwo/IDQ60801/IDQ60801.94591.axf

JavaScript Object Notation format (JSON) in row-major order
http://www.bom.gov.au/fwo/IDQ60801/IDQ60801.94591.json